OICS  Sanandaj  Airport

Iran

Add Bookmark
ICAO OICS
IATA SDG
Type Airport
Status Operational
Latitude
35° 14' 45" N
35.245899
Longitude
47° 0' 33" E
47.009201
Local (GMT +4.5 ) UTC
Aug 31, 2016 06:36 am Aug 31, 2016 02:06
Sunrise-Sunset Local UTC
Begin Civil Twilight 06:26 am 01:56
Sunrise 06:52 am 02:22
Sunset 07:51 pm 15:21
End Civil Twilight 08:17 pm 15:47
VFR
VFR
MVFR
MVFR
IFR
IFR
LIFR
LIFR
Unknown
Unavailable

Current Weather

METAR Observed VFR
OICS 310051Z 00000KT 9999 FEW040 24/05 Q1016 Wed, Aug 31, 2016 @ 00:51 UTC
(1 Hour, 15 Minutes ago)
Visual Flight Rules
Wind Visibility Clouds Conditions
Calm 10 km or more
  • Few at 4,000 ft AGL
  • No significant weather
Temperatures Readings Precipitation
Current Temp
24°C
75°F
Dewpoint
5°C
41°F
Humidity 29%
Altimeter 30" Hg
Sea Level Pressure 1,016 mb
Field Elevation
1,373 m
4,505 ft
None Recorded
-
-

CheckWX.com is intended as a tool to help pilots better visualize weather data. It is not intended as a substitute for an official weather briefing obtained from a Flight Service Station. CheckWX.com does not meet the FAA requirements for an official pre-flight weather briefing. Therefore, it's important that pilots still call and obtain an official FSS pre-flight weather briefing.

© 2007-2016 CheckWX.com
02:06:00 UTC